createdAt,value
2023-06-01T00:00:15.344Z,97921.59
2023-06-01T00:02:42.734Z,97910.75
2023-06-01T00:05:09.487Z,97927.84
2023-06-01T00:07:36.056Z,97916.34
2023-06-01T00:10:02.596Z,97916.84
2023-06-01T00:12:29.162Z,97919.28
2023-06-01T00:14:56.189Z,97929.31
2023-06-01T00:17:24.503Z,97917.41
2023-06-01T00:19:51.068Z,97929.59
2023-06-01T00:22:18.034Z,97935.38
2023-06-01T00:24:44.783Z,97932.75
2023-06-01T00:27:11.329Z,97932.09
2023-06-01T00:29:37.833Z,97917.09
2023-06-01T00:32:04.559Z,97935.56
2023-06-01T00:34:33.169Z,97919.13
2023-06-01T00:36:59.691Z,97933.00
2023-06-01T00:39:26.217Z,97934.13
2023-06-01T00:41:52.762Z,97934.09
2023-06-01T00:44:19.261Z,97937.97
2023-06-01T00:46:45.887Z,97932.88
2023-06-01T00:49:12.530Z,97938.19
2023-06-01T00:51:39.269Z,97938.63
2023-06-01T00:54:05.815Z,97938.88
2023-06-01T00:56:35.314Z,97935.81
2023-06-01T00:59:05.295Z,97935.59
2023-06-01T01:01:36.328Z,97944.00
2023-06-01T01:04:05.329Z,97948.13
2023-06-01T01:06:50.258Z,97949.34
2023-06-01T01:09:41.653Z,97947.09
2023-06-01T01:12:24.294Z,97939.28
2023-06-01T01:15:06.815Z,97944.19
2023-06-01T01:17:45.258Z,97947.06
2023-06-01T01:20:18.964Z,97942.34
2023-06-01T01:23:06.630Z,97944.59
2023-06-01T01:25:48.185Z,97943.59
2023-06-01T01:28:32.995Z,97949.75
2023-06-01T01:31:01.032Z,97926.53
2023-06-01T01:33:28.146Z,97935.81
2023-06-01T01:35:54.794Z,97943.22
2023-06-01T01:38:21.278Z,97931.00
2023-06-01T01:40:47.771Z,97943.16
2023-06-01T01:43:14.376Z,97942.59
2023-06-01T01:45:41.491Z,97936.44
2023-06-01T01:48:23.277Z,97949.97
2023-06-01T01:50:57.049Z,97942.59
2023-06-01T01:53:27.143Z,97944.66
2023-06-01T01:55:56.743Z,97950.63
2023-06-01T01:58:25.125Z,97949.59
2023-06-01T02:00:53.439Z,97949.81
2023-06-01T02:03:20.219Z,97942.59
2023-06-01T02:05:46.782Z,97944.69
2023-06-01T02:08:13.439Z,97944.47
2023-06-01T02:10:41.856Z,97953.31
2023-06-01T02:13:11.679Z,97958.25
2023-06-01T02:15:41.466Z,97947.75
2023-06-01T02:18:12.331Z,97960.69
2023-06-01T02:20:41.910Z,97960.50
2023-06-01T02:23:11.307Z,97962.13
2023-06-01T02:25:40.281Z,97950.59
2023-06-01T02:28:11.965Z,97949.97
2023-06-01T02:30:39.410Z,97949.34
2023-06-01T02:33:06.165Z,97930.84
2023-06-01T02:35:32.717Z,97943.16
2023-06-01T02:37:59.304Z,97939.06
2023-06-01T02:40:25.867Z,97937.41
2023-06-01T02:42:52.359Z,97942.19
2023-06-01T02:45:18.966Z,97946.09
2023-06-01T02:47:46.005Z,97950.00
2023-06-01T02:50:12.544Z,97950.63
2023-06-01T02:52:42.745Z,97963.16
2023-06-01T02:55:11.814Z,97952.84
2023-06-01T02:57:38.312Z,97951.84
2023-06-01T03:00:06.070Z,97954.53
2023-06-01T03:02:32.626Z,97957.38
2023-06-01T03:04:59.191Z,97951.44
2023-06-01T03:07:26.309Z,97951.84
2023-06-01T03:09:52.831Z,97947.31
2023-06-01T03:12:19.327Z,97954.72
2023-06-01T03:14:45.894Z,97952.69
2023-06-01T03:17:15.358Z,97943.81
2023-06-01T03:19:44.932Z,97948.75
2023-06-01T03:22:14.637Z,97954.28
2023-06-01T03:24:51.765Z,97953.69
2023-06-01T03:27:18.312Z,97948.75
2023-06-01T03:29:44.796Z,97954.88
2023-06-01T03:32:14.775Z,97957.13
2023-06-01T03:34:44.485Z,97962.88
2023-06-01T03:37:13.585Z,97960.63
2023-06-01T03:39:40.936Z,97967.16
2023-06-01T03:42:08.400Z,97962.81
2023-06-01T03:44:35.007Z,97963.03
2023-06-01T03:47:02.058Z,97954.97
2023-06-01T03:49:28.638Z,97964.03
2023-06-01T03:51:55.458Z,97966.50
2023-06-01T03:54:22.130Z,97970.63
2023-06-01T03:56:48.894Z,97976.81
2023-06-01T03:59:16.152Z,97956.22
2023-06-01T04:01:46.259Z,97965.28
2023-06-01T04:04:15.593Z,97975.16
2023-06-01T04:06:46.121Z,97975.34
2023-06-01T04:09:15.987Z,97984.19
2023-06-01T04:11:47.004Z,97982.94
2023-06-01T04:14:15.879Z,97984.56
2023-06-01T04:16:42.424Z,97992.41
2023-06-01T04:19:08.926Z,97986.25
2023-06-01T04:21:37.888Z,97979.25
2023-06-01T04:24:04.675Z,97999.47
2023-06-01T04:26:32.977Z,97982.59
2023-06-01T04:29:00.052Z,97974.75
2023-06-01T04:31:26.587Z,97973.31
2023-06-01T04:33:57.589Z,97997.59
2023-06-01T04:36:24.411Z,97991.84
2023-06-01T04:38:55.234Z,97988.81
2023-06-01T04:41:22.941Z,97982.00
2023-06-01T04:43:53.865Z,97985.88
2023-06-01T04:46:26.230Z,97995.34
2023-06-01T04:49:00.798Z,97997.00
2023-06-01T04:51:28.229Z,98000.50
2023-06-01T04:53:55.138Z,97991.69
2023-06-01T04:56:27.939Z,97994.59
2023-06-01T04:58:56.103Z,97996.84
2023-06-01T05:01:26.072Z,97992.09
2023-06-01T05:03:56.116Z,97996.44
2023-06-01T05:06:23.447Z,97997.66
2023-06-01T05:08:50.023Z,97983.66
2023-06-01T05:11:18.703Z,97995.00
2023-06-01T05:13:45.550Z,97993.19
2023-06-01T05:16:12.170Z,97986.41
2023-06-01T05:18:39.251Z,97995.25
2023-06-01T05:21:05.999Z,97992.59
2023-06-01T05:23:33.476Z,97992.41
2023-06-01T05:26:03.592Z,97992.19
2023-06-01T05:28:35.663Z,97996.31
2023-06-01T05:31:03.261Z,98004.09
2023-06-01T05:33:30.705Z,98003.69
2023-06-01T05:35:57.707Z,98012.78
2023-06-01T05:38:24.570Z,98015.84
2023-06-01T05:40:51.664Z,98020.16
2023-06-01T05:43:20.348Z,98014.81
2023-06-01T05:45:46.875Z,98018.53
2023-06-01T05:48:15.611Z,98014.84
2023-06-01T05:50:42.939Z,98011.97
2023-06-01T05:53:10.734Z,98016.88
2023-06-01T05:55:37.490Z,98017.28
2023-06-01T05:58:04.190Z,97994.44
2023-06-01T06:00:31.308Z,98008.75
2023-06-01T06:02:57.947Z,97996.44
2023-06-01T06:05:24.449Z,98005.28
2023-06-01T06:07:51.909Z,98018.25
2023-06-01T06:10:18.739Z,98009.22
2023-06-01T06:12:45.470Z,98000.56
2023-06-01T06:15:12.114Z,97995.31
2023-06-01T06:17:38.741Z,97987.44
2023-06-01T06:20:09.932Z,97976.25
2023-06-01T06:22:37.393Z,97999.84
2023-06-01T06:25:05.097Z,97973.03
2023-06-01T06:27:31.705Z,97983.72
2023-06-01T06:29:58.265Z,98000.56
2023-06-01T06:32:24.945Z,98005.63
2023-06-01T06:34:54.455Z,97993.63
2023-06-01T06:37:24.415Z,97999.19
2023-06-01T06:39:54.076Z,97995.81
2023-06-01T06:42:25.892Z,97996.78
2023-06-01T06:44:58.607Z,97984.59
2023-06-01T06:47:26.024Z,97991.19
2023-06-01T06:49:53.162Z,97990.66
2023-06-01T06:52:23.830Z,97992.53
2023-06-01T06:54:53.026Z,97992.63
2023-06-01T06:57:22.821Z,97998.97
2023-06-01T06:59:52.799Z,97981.72
2023-06-01T07:02:22.913Z,98000.06
2023-06-01T07:04:52.498Z,98005.03
2023-06-01T07:07:22.148Z,98003.69
2023-06-01T07:09:48.668Z,97991.69
2023-06-01T07:12:15.952Z,98002.31
2023-06-01T07:14:42.488Z,97998.25
2023-06-01T07:17:10.363Z,97993.25
2023-06-01T07:19:37.155Z,98007.09
2023-06-01T07:22:04.147Z,97994.34
2023-06-01T07:24:30.829Z,98009.91
2023-06-01T07:26:58.566Z,98014.00
2023-06-01T07:29:25.934Z,98014.97
2023-06-01T07:31:55.492Z,98004.06
2023-06-01T07:34:26.066Z,98007.00
2023-06-01T07:37:08.943Z,97999.25
2023-06-01T07:39:42.629Z,97994.56
2023-06-01T07:42:09.529Z,97984.78
2023-06-01T07:44:36.123Z,97999.72
2023-06-01T07:47:02.718Z,97975.78
2023-06-01T07:49:30.079Z,97990.13
2023-06-01T07:51:57.782Z,97980.28
2023-06-01T07:54:24.335Z,97986.31
2023-06-01T07:56:54.852Z,97990.81
2023-06-01T07:59:29.072Z,97988.75
2023-06-01T08:01:57.177Z,97986.72
2023-06-01T08:04:24.167Z,97977.84
2023-06-01T08:06:54.596Z,97993.28
2023-06-01T08:09:27.494Z,97972.50
2023-06-01T08:11:54.876Z,97997.88
2023-06-01T08:14:25.023Z,97993.97
2023-06-01T08:16:54.997Z,97988.19
2023-06-01T08:19:24.221Z,97989.50
2023-06-01T08:21:54.361Z,97986.66
2023-06-01T08:24:23.822Z,98007.09
2023-06-01T08:26:52.573Z,98007.09
2023-06-01T08:29:27.439Z,97993.03
2023-06-01T08:32:01.428Z,97982.47
2023-06-01T08:34:28.048Z,97999.81
2023-06-01T08:36:55.468Z,97992.00
2023-06-01T08:39:25.502Z,97979.38
2023-06-01T08:42:05.110Z,97993.50
2023-06-01T08:44:37.258Z,97989.69
2023-06-01T08:47:07.148Z,97997.16
2023-06-01T08:49:35.881Z,97994.00
2023-06-01T08:52:08.273Z,97992.66
2023-06-01T08:54:35.325Z,97996.91
2023-06-01T08:57:04.995Z,97981.03
2023-06-01T08:59:40.860Z,97982.72
2023-06-01T09:02:07.631Z,97991.50
2023-06-01T09:04:39.543Z,97982.00
2023-06-01T09:07:06.814Z,97998.03
2023-06-01T09:09:33.821Z,97999.34
2023-06-01T09:12:18.900Z,97993.63
2023-06-01T09:14:45.572Z,97995.47
2023-06-01T09:17:16.683Z,97987.09
2023-06-01T09:19:45.639Z,97984.84
2023-06-01T09:22:13.716Z,97973.84
2023-06-01T09:24:44.281Z,97980.38
2023-06-01T09:27:11.454Z,97977.84
2023-06-01T09:29:38.024Z,97984.22
2023-06-01T09:32:05.177Z,97980.41
2023-06-01T09:34:33.107Z,97967.91
2023-06-01T09:37:07.678Z,97966.28
2023-06-01T09:39:35.670Z,97970.63
2023-06-01T09:42:07.973Z,97953.28
2023-06-01T09:44:40.248Z,97950.44
2023-06-01T09:47:12.998Z,97976.34
2023-06-01T09:49:42.148Z,97963.75
2023-06-01T09:52:11.040Z,97963.38
2023-06-01T09:54:41.163Z,97960.41
2023-06-01T09:57:12.156Z,97957.25
2023-06-01T09:59:43.978Z,97955.81
2023-06-01T10:02:19.823Z,97956.91
2023-06-01T10:04:52.989Z,97945.75
2023-06-01T10:07:27.311Z,97954.94
2023-06-01T10:10:01.711Z,97952.03
2023-06-01T10:12:29.582Z,97958.97
2023-06-01T10:14:59.872Z,97952.28
2023-06-01T10:17:27.576Z,97957.47
2023-06-01T10:19:54.910Z,97960.09
2023-06-01T10:22:25.108Z,97944.22
2023-06-01T10:25:01.334Z,97940.63
2023-06-01T10:27:40.516Z,97947.19
2023-06-01T10:30:10.215Z,97944.75
2023-06-01T10:32:49.263Z,97939.16
2023-06-01T10:35:32.149Z,97936.94
2023-06-01T10:38:07.853Z,97933.75
2023-06-01T10:40:35.472Z,97941.69
2023-06-01T10:43:02.422Z,97934.16
2023-06-01T10:45:35.049Z,97937.97
2023-06-01T10:48:03.708Z,97923.28
2023-06-01T10:50:32.563Z,97919.88
2023-06-01T10:53:33.526Z,97927.72
2023-06-01T10:56:25.170Z,97928.75
2023-06-01T10:59:13.633Z,97933.16
2023-06-01T11:01:48.648Z,97916.38
2023-06-01T11:04:16.448Z,97908.28
2023-06-01T11:06:45.032Z,97909.91
2023-06-01T11:09:13.111Z,97918.97
2023-06-01T11:11:53.729Z,97923.97
2023-06-01T11:14:26.445Z,97917.50
2023-06-01T11:16:57.232Z,97915.22
2023-06-01T11:19:29.030Z,97919.28
2023-06-01T11:22:06.223Z,97922.00
2023-06-01T11:24:37.924Z,97905.66
2023-06-01T11:27:09.771Z,97916.13
2023-06-01T11:29:36.784Z,97906.72
2023-06-01T11:32:06.748Z,97913.00
2023-06-01T11:34:42.297Z,97912.00
2023-06-01T11:37:20.126Z,97901.34
2023-06-01T11:39:48.399Z,97906.56
2023-06-01T11:42:19.681Z,97907.53
2023-06-01T11:44:57.541Z,97903.91
2023-06-01T11:47:31.551Z,97900.41
2023-06-01T11:49:58.142Z,97897.81
2023-06-01T11:52:24.911Z,97898.25
2023-06-01T11:54:55.760Z,97894.94
2023-06-01T11:57:25.702Z,97887.19
2023-06-01T11:59:56.674Z,97883.38
2023-06-01T12:02:43.540Z,97876.13
2023-06-01T12:05:10.949Z,97874.59
2023-06-01T12:07:57.099Z,97891.91
2023-06-01T12:10:27.041Z,97889.81
2023-06-01T12:12:57.231Z,97884.50
2023-06-01T12:15:27.174Z,97871.97
2023-06-01T12:18:00.027Z,97869.41
2023-06-01T12:20:31.697Z,97868.78
2023-06-01T12:23:00.675Z,97871.19
2023-06-01T12:25:27.964Z,97871.53
2023-06-01T12:28:11.578Z,97867.75
2023-06-01T12:30:38.455Z,97872.66
2023-06-01T12:33:07.236Z,97867.41
2023-06-01T12:35:34.487Z,97864.47
2023-06-01T12:38:08.541Z,97861.44
2023-06-01T12:40:36.460Z,97857.75
2023-06-01T12:43:06.515Z,97852.25
2023-06-01T12:45:39.664Z,97852.44
2023-06-01T12:48:07.535Z,97855.88
2023-06-01T12:50:34.512Z,97840.28
2023-06-01T12:53:01.174Z,97837.00
2023-06-01T12:55:27.676Z,97841.50
2023-06-01T12:57:56.030Z,97841.19
2023-06-01T13:00:30.866Z,97835.72
2023-06-01T13:03:06.417Z,97830.69
2023-06-01T13:05:33.568Z,97825.00
2023-06-01T13:08:00.998Z,97826.94
2023-06-01T13:10:27.811Z,97829.28
2023-06-01T13:12:54.901Z,97820.91
2023-06-01T13:15:22.465Z,97832.66
2023-06-01T13:17:49.268Z,97826.59
2023-06-01T13:20:17.940Z,97810.81
2023-06-01T13:22:44.532Z,97821.06
2023-06-01T13:25:37.034Z,97814.53
2023-06-01T13:28:03.867Z,97799.91
2023-06-01T13:30:30.951Z,97806.72
2023-06-01T13:32:58.351Z,97812.50
2023-06-01T13:35:25.230Z,97803.69
2023-06-01T13:37:52.750Z,97800.88
2023-06-01T13:40:24.145Z,97804.66
2023-06-01T13:42:53.937Z,97797.88
2023-06-01T13:45:26.901Z,97792.16
2023-06-01T13:47:56.582Z,97793.44
2023-06-01T13:50:24.694Z,97785.09
2023-06-01T13:53:01.307Z,97762.47
2023-06-01T13:55:38.133Z,97785.09
2023-06-01T13:58:04.945Z,97768.13
2023-06-01T14:00:31.852Z,97782.69
2023-06-01T14:02:58.741Z,97766.50
2023-06-01T14:05:32.094Z,97774.72
2023-06-01T14:08:06.735Z,97773.19
2023-06-01T14:10:35.253Z,97773.19
2023-06-01T14:13:03.030Z,97776.59
2023-06-01T14:15:29.714Z,97773.78
2023-06-01T14:17:59.760Z,97774.38
2023-06-01T14:20:31.016Z,97766.19
2023-06-01T14:23:02.410Z,97771.59
2023-06-01T14:25:29.592Z,97755.25
2023-06-01T14:27:59.731Z,97755.59
2023-06-01T14:30:30.555Z,97762.97
2023-06-01T14:32:57.339Z,97751.34
2023-06-01T14:35:26.214Z,97746.56
2023-06-01T14:37:53.248Z,97752.28
2023-06-01T14:40:19.976Z,97746.81
2023-06-01T14:42:46.948Z,97754.88
2023-06-01T14:45:13.643Z,97754.38
2023-06-01T14:47:42.846Z,97742.09
2023-06-01T14:50:10.812Z,97736.47
2023-06-01T14:52:37.394Z,97732.94
2023-06-01T14:55:04.324Z,97738.25
2023-06-01T14:57:31.032Z,97731.94
2023-06-01T15:00:03.970Z,97731.78
2023-06-01T15:02:31.163Z,97724.16
2023-06-01T15:04:57.891Z,97716.28
2023-06-01T15:07:25.506Z,97721.09
2023-06-01T15:09:57.032Z,97714.50
2023-06-01T15:12:28.459Z,97726.13
2023-06-01T15:15:05.924Z,97712.22
2023-06-01T15:17:34.667Z,97720.78
2023-06-01T15:20:01.577Z,97723.06
2023-06-01T15:22:28.234Z,97709.50
2023-06-01T15:24:57.730Z,97697.06
2023-06-01T15:27:27.721Z,97707.41
2023-06-01T15:29:56.505Z,97691.56
2023-06-01T15:32:23.110Z,97696.09
2023-06-01T15:34:49.797Z,97700.13
2023-06-01T15:37:16.455Z,97690.13
2023-06-01T15:39:43.106Z,97692.22
2023-06-01T15:42:11.226Z,97702.56
2023-06-01T15:44:43.107Z,97695.94
2023-06-01T15:47:11.195Z,97692.06
2023-06-01T15:49:40.952Z,97690.44
2023-06-01T15:52:08.198Z,97677.69
2023-06-01T15:54:36.174Z,97681.22
2023-06-01T15:57:05.263Z,97679.13
2023-06-01T15:59:31.967Z,97659.50
2023-06-01T16:01:58.792Z,97677.56
2023-06-01T16:04:27.644Z,97673.91
2023-06-01T16:06:54.266Z,97679.72
2023-06-01T16:09:24.518Z,97673.94
2023-06-01T16:11:52.470Z,97649.81
2023-06-01T16:14:19.126Z,97647.38
2023-06-01T16:16:45.981Z,97643.59
2023-06-01T16:19:15.425Z,97645.19
2023-06-01T16:21:42.275Z,97640.84
2023-06-01T16:24:09.460Z,97635.69
2023-06-01T16:26:38.300Z,97635.38
2023-06-01T16:29:05.038Z,97644.19
2023-06-01T16:31:31.850Z,97643.63
2023-06-01T16:34:02.570Z,97632.13
2023-06-01T16:36:29.296Z,97638.13
2023-06-01T16:38:56.023Z,97627.00
2023-06-01T16:41:22.781Z,97642.81
2023-06-01T16:43:49.403Z,97649.34
2023-06-01T16:46:16.206Z,97651.13
2023-06-01T16:48:42.904Z,97659.09
2023-06-01T16:51:09.500Z,97660.06
2023-06-01T16:53:35.984Z,97652.41
2023-06-01T16:56:02.612Z,97675.13
2023-06-01T16:58:32.333Z,97668.84
2023-06-01T17:00:58.937Z,97676.88
2023-06-01T17:03:27.089Z,97678.84
2023-06-01T17:05:56.040Z,97675.94
2023-06-01T17:08:22.554Z,97681.84
2023-06-01T17:10:49.092Z,97685.13
2023-06-01T17:13:15.836Z,97684.00
2023-06-01T17:15:42.552Z,97679.13
2023-06-01T17:18:11.807Z,97681.25
2023-06-01T17:20:41.233Z,97681.50
2023-06-01T17:23:07.911Z,97690.28
2023-06-01T17:25:34.815Z,97683.72
2023-06-01T17:28:02.054Z,97679.69
2023-06-01T17:30:29.633Z,97670.22
2023-06-01T17:32:56.566Z,97673.28
2023-06-01T17:35:23.222Z,97675.22
2023-06-01T17:37:49.751Z,97666.25
2023-06-01T17:40:16.399Z,97660.88
2023-06-01T17:42:43.035Z,97664.72
2023-06-01T17:45:10.631Z,97674.78
2023-06-01T17:47:37.640Z,97666.66
2023-06-01T17:50:04.522Z,97672.09
2023-06-01T17:52:32.133Z,97673.75
2023-06-01T17:54:58.684Z,97673.75
2023-06-01T17:57:25.170Z,97670.22
2023-06-01T17:59:52.530Z,97669.09
2023-06-01T18:02:19.055Z,97670.78
2023-06-01T18:04:45.596Z,97675.09
2023-06-01T18:07:12.150Z,97679.72
2023-06-01T18:09:38.673Z,97662.38
2023-06-01T18:12:06.025Z,97677.53
2023-06-01T18:14:32.550Z,97678.91
2023-06-01T18:17:01.803Z,97674.84
2023-06-01T18:19:28.380Z,97668.66
2023-06-01T18:22:10.402Z,97660.28
2023-06-01T18:24:53.685Z,97658.91
2023-06-01T18:27:20.743Z,97665.41
2023-06-01T18:29:47.369Z,97668.44
2023-06-01T18:32:13.982Z,97666.00
2023-06-01T18:34:40.600Z,97669.81
2023-06-01T18:37:11.144Z,97655.41
2023-06-01T18:39:53.662Z,97673.88
2023-06-01T18:42:45.215Z,97672.50
2023-06-01T18:45:12.034Z,97675.47
2023-06-01T18:47:39.280Z,97675.50
2023-06-01T18:50:06.563Z,97660.84
2023-06-01T18:52:33.328Z,97667.31
2023-06-01T18:55:05.880Z,97658.66
2023-06-01T18:57:32.447Z,97667.59
2023-06-01T19:03:34.136Z,97659.09
2023-06-01T19:06:04.534Z,97674.78
2023-06-01T19:08:32.964Z,97680.72
2023-06-01T19:11:02.877Z,97679.63
2023-06-01T19:13:35.581Z,97683.63
2023-06-01T19:16:08.843Z,97675.13
2023-06-01T19:18:35.450Z,97681.28
2023-06-01T19:21:26.605Z,97682.81
2023-06-01T19:23:58.508Z,97683.28
2023-06-01T19:26:28.351Z,97685.69
2023-06-01T19:29:06.758Z,97691.81
2023-06-01T19:31:44.597Z,97691.91
2023-06-01T19:34:13.029Z,97673.09
2023-06-01T19:36:42.592Z,97692.56
2023-06-01T19:39:32.310Z,97695.13
2023-06-01T19:42:08.351Z,97695.78
2023-06-01T19:44:35.765Z,97715.94
2023-06-01T19:47:07.293Z,97698.47
2023-06-01T19:49:39.803Z,97722.75
2023-06-01T19:52:11.080Z,97727.03
2023-06-01T19:54:39.202Z,97718.19
2023-06-01T19:57:08.852Z,97726.59
2023-06-01T19:59:37.680Z,97725.06
2023-06-01T20:02:07.287Z,97736.13
2023-06-01T20:04:38.488Z,97712.88
2023-06-01T20:07:16.130Z,97724.09
2023-06-01T20:09:42.847Z,97738.81
2023-06-01T20:12:13.239Z,97726.94
2023-06-01T20:14:40.074Z,97738.41
2023-06-01T20:17:06.804Z,97741.00
2023-06-01T20:20:26.529Z,97734.19
2023-06-01T20:23:41.927Z,97738.31
2023-06-01T20:26:11.188Z,97754.03
2023-06-01T20:28:48.154Z,97735.69
2023-06-01T20:31:17.269Z,97747.53
2023-06-01T20:33:44.620Z,97753.38
2023-06-01T20:36:12.452Z,97756.88
2023-06-01T20:38:41.453Z,97767.41
2023-06-01T20:41:10.562Z,97763.06
2023-06-01T20:43:38.379Z,97761.63
2023-06-01T20:46:12.813Z,97764.47
2023-06-01T20:48:52.498Z,97764.97
2023-06-01T20:51:34.384Z,97760.72
2023-06-01T20:54:08.021Z,97760.94
2023-06-01T20:56:39.794Z,97754.81
2023-06-01T20:59:10.597Z,97757.59
2023-06-01T21:01:39.960Z,97761.84
2023-06-01T21:04:08.925Z,97762.81
2023-06-01T21:06:36.331Z,97757.69
2023-06-01T21:09:10.705Z,97754.66
2023-06-01T21:11:41.659Z,97749.63
2023-06-01T21:14:08.345Z,97748.63
2023-06-01T21:16:35.105Z,97749.66
2023-06-01T21:19:04.610Z,97749.34
2023-06-01T21:21:33.833Z,97756.75
2023-06-01T21:24:01.096Z,97768.28
2023-06-01T21:26:27.844Z,97768.44
2023-06-01T21:28:54.567Z,97754.22
2023-06-01T21:31:21.518Z,97758.94
2023-06-01T21:33:48.473Z,97765.63
2023-06-01T21:36:15.279Z,97765.19
2023-06-01T21:38:41.936Z,97768.13
2023-06-01T21:41:10.638Z,97766.97
2023-06-01T21:43:37.441Z,97757.50
2023-06-01T21:46:07.477Z,97758.34
2023-06-01T21:48:37.655Z,97754.59
2023-06-01T21:51:08.846Z,97747.34
2023-06-01T21:53:38.566Z,97774.34
2023-06-01T21:56:07.496Z,97773.91
2023-06-01T21:58:38.308Z,97762.75
2023-06-01T22:01:09.212Z,97768.03
2023-06-01T22:03:39.753Z,97774.69
2023-06-01T22:06:07.628Z,97782.75
2023-06-01T22:08:37.298Z,97778.81
2023-06-01T22:11:07.475Z,97777.84
2023-06-01T22:13:39.817Z,97759.63
2023-06-01T22:16:07.688Z,97777.50
2023-06-01T22:18:36.641Z,97778.78
2023-06-01T22:21:03.308Z,97753.09
2023-06-01T22:23:29.954Z,97773.16
2023-06-01T22:25:56.550Z,97772.94
2023-06-01T22:28:23.187Z,97774.00
2023-06-01T22:30:49.779Z,97765.78
2023-06-01T22:33:16.374Z,97766.97
2023-06-01T22:35:42.996Z,97780.16
2023-06-01T22:38:09.645Z,97781.69
2023-06-01T22:40:38.462Z,97769.25
2023-06-01T22:43:05.122Z,97765.34
2023-06-01T22:45:31.898Z,97776.69
2023-06-01T22:47:58.583Z,97775.97
2023-06-01T22:50:25.532Z,97778.19
2023-06-01T22:52:53.173Z,97773.50
2023-06-01T22:55:19.836Z,97772.03
2023-06-01T22:57:46.466Z,97782.84
2023-06-01T23:00:13.245Z,97758.72
2023-06-01T23:02:42.973Z,97778.03
2023-06-01T23:05:13.768Z,97756.97
2023-06-01T23:07:41.208Z,97774.47
2023-06-01T23:10:11.798Z,97783.66
2023-06-01T23:12:42.227Z,97775.06
2023-06-01T23:15:13.333Z,97760.53
2023-06-01T23:17:43.971Z,97779.56
2023-06-01T23:20:14.897Z,97776.59
2023-06-01T23:22:41.553Z,97776.34
2023-06-01T23:25:11.203Z,97773.28
2023-06-01T23:27:37.817Z,97781.38
2023-06-01T23:30:04.611Z,97765.41
2023-06-01T23:32:32.638Z,97774.72
2023-06-01T23:34:59.313Z,97747.06
2023-06-01T23:37:28.850Z,97767.22
2023-06-01T23:39:55.852Z,97768.03
2023-06-01T23:42:22.528Z,97745.47
2023-06-01T23:44:49.110Z,97749.75
2023-06-01T23:47:17.933Z,97758.25
2023-06-01T23:49:44.548Z,97762.97
2023-06-01T23:52:16.544Z,97763.84
2023-06-01T23:54:43.150Z,97762.31
2023-06-01T23:57:10.963Z,97759.25
2023-06-01T23:59:37.581Z,97769.47
